Time;durP1;ratioP1;P1;durP2;ratioP2;P2;SDS_P1;SDS_P2;PMS_P1;PMS_P2;Temp;Humidity;BMP_temperature;BMP_pressure;BME280_temperature;BME280_humidity;BME280_pressure;Samples;Min_cycle;Max_cycle;Signal;HPM_P1;HPM_P2
2021/07/01 00:01:41;;;;;;;19.73;14.27;;;13.40;99.90;;;12.24;98.83;97450.16;5042942;28;20041;-67
2021/07/01 00:04:29;;;;;;;24.27;14.00;;;13.40;99.90;;;12.27;98.78;97452.63;5036031;28;20076;-67
2021/07/01 00:07:16;;;;;;;27.02;15.15;;;13.40;99.90;;;12.26;98.02;97456.13;5043068;28;20033;-67
2021/07/01 00:10:09;;;;;;;23.75;14.45;;;13.30;99.90;;;12.33;98.67;97456.66;5048531;28;20064;-66
2021/07/01 00:12:56;;;;;;;20.05;13.70;;;13.40;99.90;;;12.27;98.80;97459.56;5049786;28;20087;-67
2021/07/01 00:15:44;;;;;;;19.60;13.05;;;13.40;99.90;;;12.22;98.41;97458.97;5044124;28;20474;-67
2021/07/01 00:18:31;;;;;;;18.67;12.45;;;13.40;99.90;;;12.35;98.28;97460.88;5032068;28;20489;-66
2021/07/01 00:21:19;;;;;;;20.05;12.38;;;13.40;99.90;;;12.28;98.02;97459.50;5050008;28;20044;-66
2021/07/01 00:24:06;;;;;;;21.77;13.43;;;13.40;99.90;;;12.24;97.94;97460.56;5043943;28;20037;-67
2021/07/01 00:26:53;;;;;;;22.15;14.05;;;13.40;99.90;;;12.12;98.54;97461.22;5046259;28;20124;-66
2021/07/01 00:29:41;;;;;;;19.92;13.77;;;13.50;99.90;;;12.21;98.51;97454.69;5039460;28;20044;-66
2021/07/01 00:32:28;;;;;;;18.80;10.98;;;13.40;99.90;;;12.19;97.75;97462.56;5028588;28;20040;-66
2021/07/01 00:35:16;;;;;;;18.70;11.35;;;13.40;99.90;;;12.19;98.00;97454.78;5036639;28;20421;-66
2021/07/01 00:38:03;;;;;;;18.25;11.93;;;13.40;99.90;;;12.17;98.23;97459.19;5041255;28;20052;-66
2021/07/01 00:40:50;;;;;;;24.52;13.00;;;13.40;99.90;;;12.14;98.43;97446.38;5046858;28;20386;-66
2021/07/01 00:43:38;;;;;;;22.40;12.85;;;13.40;99.90;;;12.16;98.32;97454.06;5048341;28;20041;-66
2021/07/01 00:46:26;;;;;;;21.40;11.98;;;13.40;99.90;;;12.16;97.56;97451.47;5038035;28;20124;-66
2021/07/01 00:49:13;;;;;;;20.35;11.43;;;13.40;99.90;;;12.22;97.42;97453.75;5040388;28;20132;-66
2021/07/01 00:52:02;;;;;;;17.75;11.00;;;13.30;99.90;;;12.17;97.09;97443.59;5033129;28;20045;-66
2021/07/01 00:54:49;;;;;;;17.90;11.43;;;13.40;99.90;;;12.13;97.52;97461.13;5035330;28;20102;-67
2021/07/01 00:57:37;;;;;;;13.23;9.13;;;13.40;99.90;;;12.25;96.78;97457.06;5038762;28;20053;-66
2021/07/01 01:03:12;;;;;;;12.63;8.63;;;13.30;99.90;;;12.23;96.85;97453.69;5028246;28;20037;-66
2021/07/01 01:06:01;;;;;;;13.98;9.85;;;13.30;99.90;;;12.17;97.37;97455.78;5046874;28;20044;-66
2021/07/01 01:08:49;;;;;;;14.25;9.15;;;13.40;99.90;;;12.18;97.59;97452.22;5039622;28;20060;-66
2021/07/01 01:11:37;;;;;;;12.57;9.95;;;13.30;99.90;;;12.15;97.12;97458.44;5022979;28;20413;-66
2021/07/01 01:14:25;;;;;;;14.55;10.73;;;13.30;99.90;;;12.13;97.64;97460.28;5011710;28;20048;-66
2021/07/01 01:17:12;;;;;;;12.80;9.05;;;13.30;99.90;;;12.18;97.37;97458.31;5023245;28;20064;-66
2021/07/01 01:20:00;;;;;;;17.85;9.52;;;13.30;99.90;;;12.14;97.79;97459.38;5022132;28;20037;-66
2021/07/01 01:22:47;;;;;;;14.88;10.07;;;13.40;99.90;;;12.20;97.99;97453.88;5011290;28;20480;-66
2021/07/01 01:25:34;;;;;;;16.23;10.13;;;13.40;99.90;;;12.14;98.06;97457.59;5022186;28;20030;-66
2021/07/01 01:28:21;;;;;;;13.63;10.30;;;13.40;99.90;;;12.16;97.17;97461.88;5021356;28;20524;-66
2021/07/01 01:31:09;;;;;;;20.13;10.85;;;13.30;99.90;;;12.07;97.58;97448.44;5022009;28;21270;-66
2021/07/01 01:33:56;;;;;;;15.35;9.65;;;13.40;99.90;;;12.18;97.31;97442.69;5022473;28;20158;-66
2021/07/01 01:36:44;;;;;;;15.25;11.32;;;13.30;99.90;;;12.14;97.33;97457.59;5020311;28;20088;-66
2021/07/01 01:39:31;;;;;;;16.85;9.52;;;13.40;99.90;;;12.37;97.67;97452.16;5024091;28;20128;-66
2021/07/01 01:42:19;;;;;;;11.60;8.73;;;13.30;99.90;;;12.26;96.94;97455.28;5019547;28;20037;-66
2021/07/01 01:45:07;;;;;;;12.07;9.18;;;13.40;99.90;;;12.20;97.92;97458.19;5021958;28;20053;-66
2021/07/01 01:47:54;;;;;;;15.43;9.50;;;13.30;99.90;;;12.33;96.82;97456.66;5019900;28;20045;-66
2021/07/01 01:50:42;;;;;;;12.65;9.30;;;13.30;99.90;;;12.35;96.70;97450.44;5021996;28;20269;-66
2021/07/01 01:53:29;;;;;;;15.00;10.85;;;13.30;99.90;;;12.26;97.03;97452.69;5021394;28;20045;-66
2021/07/01 01:56:20;;;;;;;12.85;10.25;;;13.30;99.90;;;12.23;97.51;97453.69;5018993;28;20068;-66
2021/07/01 01:59:08;;;;;;;16.58;10.02;;;13.30;99.90;;;12.29;97.56;97448.19;5015739;28;20057;-66
2021/07/01 02:01:55;;;;;;;16.52;11.15;;;13.40;99.90;;;12.38;97.26;97453.81;5021359;28;20593;-67
2021/07/01 02:04:42;;;;;;;20.35;12.45;;;13.30;99.90;;;12.17;97.76;97450.56;5020498;28;20042;-67
2021/07/01 02:07:30;;;;;;;15.75;12.63;;;13.30;99.90;;;12.16;98.13;97457.53;5019425;28;20128;-67
2021/07/01 02:10:25;;;;;;;12.70;10.50;;;13.40;99.90;;;12.23;97.87;97452.88;5019109;28;20421;-66
2021/07/01 02:13:12;;;;;;;17.98;10.98;;;13.40;99.90;;;12.31;97.22;97454.13;5034448;28;20041;-67
2021/07/01 02:16:00;;;;;;;16.10;12.90;;;13.30;99.90;;;12.14;98.67;97464.56;5031950;28;20041;-66
2021/07/01 02:18:49;;;;;;;16.08;12.13;;;13.30;99.90;;;12.29;98.88;97452.53;5027562;28;20510;-67
2021/07/01 02:21:36;;;;;;;18.98;13.30;;;13.40;99.90;;;12.21;98.49;97455.53;5021118;28;20533;-66
2021/07/01 02:24:24;;;;;;;19.35;13.25;;;13.30;99.90;;;12.24;98.66;97459.75;5021328;28;20235;-66
2021/07/01 02:27:12;;;;;;;17.40;11.35;;;13.40;99.90;;;12.29;98.77;97455.13;5020840;28;20053;-66
2021/07/01 02:30:00;;;;;;;16.92;11.73;;;13.40;99.90;;;12.26;97.93;97458.72;5019844;28;20041;-66
2021/07/01 02:32:47;;;;;;;13.95;10.57;;;13.40;99.90;;;12.26;98.27;97453.53;5018426;28;20049;-66
2021/07/01 02:35:51;;;;;;;14.20;10.70;;;13.40;99.90;;;12.31;98.27;97448.91;5015684;28;20053;-66
2021/07/01 02:38:39;;;;;;;15.07;10.93;;;13.40;99.90;;;12.21;98.18;97454.69;5021244;28;20092;-66
2021/07/01 02:41:26;;;;;;;16.27;11.63;;;13.40;99.90;;;12.18;98.27;97455.69;5018993;28;20046;-66
2021/07/01 02:44:13;;;;;;;12.13;9.63;;;13.40;99.90;;;12.43;97.94;97454.41;5022283;28;20076;-66
2021/07/01 02:47:01;;;;;;;13.95;10.50;;;13.40;99.90;;;12.26;97.85;97468.31;5021198;28;20057;-67
2021/07/01 02:49:48;;;;;;;14.60;9.18;;;13.50;99.90;;;12.36;98.06;97456.50;5020561;28;20084;-66
2021/07/01 02:52:37;;;;;;;14.95;9.63;;;13.40;99.90;;;12.29;97.24;97461.19;5019365;28;20450;-66
2021/07/01 02:55:25;;;;;;;16.10;8.98;;;13.40;99.90;;;12.28;97.54;97472.50;5020291;28;20145;-66
2021/07/01 02:58:12;;;;;;;11.23;8.18;;;13.40;99.90;;;12.24;98.08;97462.34;5020148;28;20042;-67
2021/07/01 03:01:00;;;;;;;15.45;8.70;;;13.40;99.90;;;12.25;98.26;97471.84;5014224;28;20053;-66
2021/07/01 03:03:48;;;;;;;12.43;8.80;;;13.40;99.90;;;12.26;98.93;97463.94;5019319;28;20045;-66
2021/07/01 03:06:36;;;;;;;11.48;7.78;;;13.30;99.90;;;12.16;100.00;97472.28;5020814;28;20046;-66
2021/07/01 03:09:23;;;;;;;14.77;9.20;;;13.30;99.90;;;11.98;100.00;97466.28;5023234;28;20367;-67
2021/07/01 03:12:11;;;;;;;13.38;8.45;;;13.30;99.90;;;12.08;100.00;97460.50;5020377;28;20442;-66
2021/07/01 03:14:58;;;;;;;12.43;8.27;;;13.20;99.90;;;12.03;100.00;97462.50;5026148;28;20037;-66
2021/07/01 03:17:46;;;;;;;13.70;7.50;;;13.20;99.90;;;12.20;100.00;97469.47;5012831;28;20148;-66
2021/07/01 03:20:34;;;;;;;13.50;8.45;;;13.10;99.90;;;11.96;100.00;97461.13;5031676;28;20051;-65
2021/07/01 03:23:22;;;;;;;10.57;7.80;;;13.00;99.90;;;12.06;100.00;97454.53;5028941;28;20128;-67
2021/07/01 03:26:15;;;;;;;12.43;8.02;;;13.00;99.90;;;12.08;100.00;97460.50;5029434;28;20056;-66
2021/07/01 03:29:03;;;;;;;14.45;9.07;;;13.00;99.90;;;12.12;100.00;97456.00;5022881;28;20051;-66
2021/07/01 03:31:50;;;;;;;9.98;7.47;;;13.00;99.90;;;12.00;100.00;97464.44;5022987;28;20482;-67
2021/07/01 03:34:37;;;;;;;12.48;7.97;;;13.10;99.90;;;12.20;100.00;97463.41;5023057;28;20037;-67
2021/07/01 03:37:25;;;;;;;11.77;8.15;;;13.10;99.90;;;12.05;100.00;97467.66;5025996;28;20041;-67
2021/07/01 03:40:13;;;;;;;10.85;6.30;;;13.10;99.90;;;12.13;100.00;97458.53;5024329;28;20037;-67
2021/07/01 03:43:01;;;;;;;14.10;8.05;;;13.10;99.90;;;12.10;100.00;97465.66;5024017;28;20041;-67
2021/07/01 03:45:49;;;;;;;12.15;8.38;;;13.10;99.90;;;12.02;100.00;97466.03;5023235;28;20034;-67
2021/07/01 03:48:36;;;;;;;11.95;8.05;;;13.10;99.90;;;12.11;100.00;97472.50;5027755;28;20465;-67
2021/07/01 03:51:24;;;;;;;12.93;6.57;;;13.10;99.90;;;12.14;100.00;97461.97;5022738;28;20501;-66
2021/07/01 03:54:11;;;;;;;11.45;7.25;;;13.10;99.90;;;12.04;100.00;97464.22;5008527;28;20528;-67
2021/07/01 03:56:59;;;;;;;10.00;6.18;;;13.10;99.90;;;12.04;100.00;97472.00;5023742;28;20034;-66
2021/07/01 03:59:46;;;;;;;11.43;6.18;;;13.10;99.90;;;11.93;100.00;97469.94;5023064;28;20517;-66
2021/07/01 04:02:34;;;;;;;10.68;5.70;;;13.10;99.90;;;12.02;100.00;97471.25;5024149;28;20046;-67
2021/07/01 04:05:21;;;;;;;7.47;5.65;;;13.10;99.90;;;12.07;100.00;97478.81;5023443;28;20076;-67
2021/07/01 04:08:09;;;;;;;8.98;5.22;;;13.10;99.90;;;12.11;100.00;97469.91;5020778;28;20378;-65
2021/07/01 04:10:56;;;;;;;10.45;5.43;;;13.10;99.90;;;12.23;100.00;97479.72;5026284;28;20119;-65
2021/07/01 04:13:43;;;;;;;7.38;5.65;;;13.10;99.90;;;12.13;99.16;97478.50;4999991;28;20050;-65
2021/07/01 04:16:31;;;;;;;8.70;5.47;;;13.20;99.90;;;12.20;99.71;97474.69;5023958;28;20052;-65
2021/07/01 04:19:18;;;;;;;10.45;5.80;;;13.20;99.90;;;12.30;100.00;97473.28;5022555;28;20040;-65
2021/07/01 04:22:06;;;;;;;8.98;6.07;;;13.20;99.90;;;12.17;98.96;97479.19;5023496;28;20556;-65
2021/07/01 04:24:53;;;;;;;9.82;6.65;;;13.20;99.90;;;12.12;99.20;97477.66;5021069;28;20060;-65
2021/07/01 04:27:40;;;;;;;7.40;5.30;;;13.20;99.90;;;12.21;98.98;97485.94;5019951;28;20084;-65
2021/07/01 04:30:28;;;;;;;9.38;5.45;;;13.20;99.90;;;12.32;98.78;97486.22;5021844;28;20042;-65
2021/07/01 04:33:15;;;;;;;10.23;6.97;;;13.20;99.90;;;12.04;99.13;97492.81;5011349;28;20456;-65
2021/07/01 04:36:03;;;;;;;13.48;6.50;;;13.20;99.90;;;12.14;99.63;97488.81;5023017;28;20053;-65
2021/07/01 04:38:51;;;;;;;10.48;5.93;;;13.20;99.90;;;12.20;99.59;97479.88;5021978;28;20046;-65
2021/07/01 04:41:38;;;;;;;7.85;5.20;;;13.30;99.90;;;12.29;98.88;97476.81;5022141;28;20049;-65
2021/07/01 04:44:25;;;;;;;14.50;7.13;;;13.30;99.90;;;12.14;98.65;97486.22;5022094;28;20119;-65
2021/07/01 04:47:13;;;;;;;9.60;6.55;;;13.30;99.90;;;12.23;98.75;97479.72;5023387;28;20041;-65
2021/07/01 04:50:02;;;;;;;8.23;6.68;;;13.40;99.90;;;12.23;98.99;97479.72;5025272;28;20371;-65
2021/07/01 04:52:49;;;;;;;8.80;5.80;;;13.40;99.90;;;12.30;98.53;97482.84;5002020;28;20060;-66
2021/07/01 04:55:37;;;;;;;10.35;6.47;;;13.40;99.90;;;12.36;98.33;97487.72;5022588;28;20489;-65
2021/07/01 04:58:24;;;;;;;13.07;6.75;;;13.40;99.90;;;12.35;98.38;97489.50;5008002;28;20030;-65
2021/07/01 05:01:12;;;;;;;13.32;6.97;;;13.30;99.90;;;12.20;98.36;97489.44;5022270;28;20572;-65
2021/07/01 05:03:59;;;;;;;9.77;6.22;;;13.40;99.90;;;12.24;97.68;97489.19;5021415;28;20041;-65
2021/07/01 05:06:46;;;;;;;9.50;5.60;;;13.40;99.90;;;12.33;96.76;97486.13;5023590;28;20045;-66
2021/07/01 05:09:34;;;;;;;10.18;4.97;;;13.50;99.90;;;12.26;96.64;97484.75;5023120;28;20052;-66
2021/07/01 05:12:21;;;;;;;7.78;5.28;;;13.50;99.90;;;12.33;97.52;97493.94;5022935;28;20693;-65
2021/07/01 05:15:09;;;;;;;10.63;6.30;;;13.50;99.90;;;12.25;97.92;97490.91;5021902;28;20521;-66
2021/07/01 05:17:56;;;;;;;9.02;5.93;;;13.40;99.90;;;12.16;98.75;97485.28;5021994;28;20659;-65
2021/07/01 05:20:44;;;;;;;9.88;6.47;;;13.30;99.90;;;12.16;98.98;97485.28;5020867;28;20048;-65
2021/07/01 05:23:31;;;;;;;6.97;5.05;;;13.30;99.90;;;12.18;98.36;97491.25;5022380;28;20038;-65
2021/07/01 05:26:19;;;;;;;8.52;6.72;;;13.20;99.90;;;12.13;98.56;97486.28;5021473;28;20119;-65
2021/07/01 05:29:06;;;;;;;13.05;6.97;;;13.20;99.90;;;12.00;98.84;97499.09;5021376;28;20053;-65
2021/07/01 05:32:13;;;;;;;11.90;7.50;;;13.20;99.90;;;12.06;99.32;97492.72;5021091;28;20409;-65
2021/07/01 05:35:01;;;;;;;9.43;5.85;;;13.30;99.90;;;12.14;99.52;97501.00;5022233;28;20906;-66
2021/07/01 05:37:48;;;;;;;12.55;7.68;;;13.30;99.90;;;12.19;98.87;97503.38;5022497;28;20683;-66
2021/07/01 05:40:35;;;;;;;10.20;6.35;;;13.40;99.90;;;12.12;97.70;97487.22;5023105;28;20489;-66
2021/07/01 05:43:24;;;;;;;9.88;5.53;;;13.40;99.90;;;12.16;98.23;97496.56;5021482;28;20166;-66
2021/07/01 05:46:11;;;;;;;14.55;6.05;;;13.40;99.90;;;12.25;98.18;97493.50;5020225;28;20056;-65
2021/07/01 05:48:59;;;;;;;10.38;7.03;;;13.40;99.90;;;12.33;98.56;97487.91;5022256;28;20770;-66
2021/07/01 05:51:49;;;;;;;9.25;6.18;;;13.40;99.90;;;12.13;97.57;97497.56;5022972;28;20042;-66
2021/07/01 05:54:52;;;;;;;9.93;6.93;;;13.50;99.90;;;12.11;97.84;97491.59;5021488;28;20329;-65
2021/07/01 05:57:39;;;;;;;11.93;6.93;;;13.50;99.90;;;12.14;97.56;97501.00;5009726;28;20426;-65
2021/07/01 06:00:27;;;;;;;15.55;8.35;;;13.50;99.90;;;12.17;98.74;97498.22;5024640;28;20513;-66
2021/07/01 06:03:14;;;;;;;10.82;5.88;;;13.50;99.90;;;12.23;97.93;97499.72;5007360;28;20049;-65
2021/07/01 06:06:11;;;;;;;10.20;6.78;;;13.40;99.90;;;12.32;99.47;97496.63;5019305;28;20041;-66
2021/07/01 06:09:01;;;;;;;13.52;8.10;;;13.40;99.90;;;12.25;97.68;97503.91;5021765;28;20065;-65
2021/07/01 06:11:58;;;;;;;12.65;7.53;;;13.40;99.90;;;12.38;98.75;97504.09;5020680;28;20134;-64
2021/07/01 06:14:46;;;;;;;11.43;8.05;;;13.60;99.90;;;12.27;97.63;97507.28;5020750;28;20370;-66
2021/07/01 06:17:33;;;;;;;11.40;7.15;;;13.70;99.90;;;12.51;96.85;97507.78;5005039;28;20049;-65
2021/07/01 06:20:21;;;;;;;8.55;6.88;;;13.80;99.90;;;12.40;95.84;97510.09;5019177;28;20046;-65
2021/07/01 06:23:08;;;;;;;9.63;5.97;;;13.80;99.90;;;12.54;96.15;97507.63;5021363;28;20046;-65
2021/07/01 06:25:58;;;;;;;12.00;6.10;;;13.90;99.90;;;12.59;95.57;97507.41;5021214;28;20050;-66
2021/07/01 06:28:45;;;;;;;11.27;5.60;;;13.80;99.90;;;12.56;96.39;97520.56;5007559;28;20675;-65
2021/07/01 06:31:32;;;;;;;12.27;5.38;;;13.80;99.90;;;12.57;96.31;97519.66;5020005;28;20142;-66
2021/07/01 06:34:20;;;;;;;13.10;8.35;;;13.90;99.90;;;12.65;95.49;97511.44;5020661;28;20045;-65
2021/07/01 06:37:08;;;;;;;11.93;4.65;;;13.90;99.90;;;12.44;95.46;97518.59;5020191;28;20046;-65
2021/07/01 06:39:56;;;;;;;5.45;3.75;;;13.90;99.90;;;12.63;95.88;97510.66;5018178;28;20042;-65
2021/07/01 06:42:55;;;;;;;6.13;3.42;;;14.00;99.90;;;12.65;93.92;97512.25;5021560;28;20057;-65
2021/07/01 06:45:43;;;;;;;5.30;3.28;;;14.00;99.90;;;12.62;96.34;97514.19;5020769;28;20178;-65
2021/07/01 06:48:31;;;;;;;4.63;2.78;;;14.10;99.90;;;12.56;94.73;97518.78;5017771;28;20072;-65
2021/07/01 06:51:19;;;;;;;4.72;2.42;;;14.10;99.90;;;12.59;95.15;97520.41;5020537;28;20037;-66
2021/07/01 06:54:13;;;;;;;6.30;3.55;;;14.10;99.90;;;12.62;95.01;97538.47;5014977;28;20140;-65
2021/07/01 06:57:01;;;;;;;8.60;5.43;;;14.00;99.90;;;12.74;95.86;97526.56;5022318;28;20438;-65
2021/07/01 06:59:49;;;;;;;6.93;3.00;;;14.00;99.90;;;12.41;95.92;97529.16;5013695;28;20049;-65
2021/07/01 07:02:37;;;;;;;6.18;2.30;;;14.00;99.90;;;12.76;93.85;97535.16;5023607;28;20154;-65
2021/07/01 07:05:26;;;;;;;5.60;2.65;;;13.90;99.90;;;12.69;95.88;97525.97;5023871;28;20042;-65
2021/07/01 07:08:14;;;;;;;4.95;2.50;;;13.90;99.90;;;12.78;95.22;97533.31;5022280;28;20037;-66
2021/07/01 07:11:02;;;;;;;4.03;2.55;;;13.80;99.90;;;12.49;95.98;97547.81;5024321;28;20628;-65
2021/07/01 07:13:49;;;;;;;5.03;2.88;;;13.90;99.90;;;12.40;94.68;97553.50;5022515;28;20449;-66
2021/07/01 07:16:40;;;;;;;5.47;2.60;;;13.90;99.90;;;12.46;95.86;97542.78;5025679;28;20037;-65
2021/07/01 07:19:32;;;;;;;7.80;2.65;;;13.80;99.90;;;12.65;94.89;97548.72;5024196;28;20045;-65
2021/07/01 07:22:21;;;;;;;4.40;2.70;;;13.80;99.90;;;12.63;96.11;97541.91;5009975;28;20466;-65
2021/07/01 07:25:11;;;;;;;4.53;2.70;;;13.90;99.90;;;12.54;94.78;97556.25;5020932;28;20052;-65
2021/07/01 07:28:05;;;;;;;3.88;2.45;;;14.00;99.90;;;12.69;94.81;97552.03;5022978;28;20037;-65
2021/07/01 07:30:56;;;;;;;6.80;2.92;;;14.10;99.90;;;12.62;94.06;97554.09;5024112;28;20057;-65
2021/07/01 07:33:44;;;;;;;6.47;2.33;;;14.10;99.90;;;12.74;93.46;97557.81;5008515;28;20424;-65
2021/07/01 07:36:36;;;;;;;4.03;2.38;;;14.10;99.90;;;12.62;93.36;97558.47;5009705;28;20398;-65
2021/07/01 07:39:28;;;;;;;3.78;2.40;;;14.00;99.90;;;12.56;94.34;97563.03;5023955;28;20044;-66
2021/07/01 07:42:17;;;;;;;3.80;2.23;;;13.90;99.90;;;12.61;94.26;97560.22;5024294;28;20052;-66
2021/07/01 07:45:07;;;;;;;3.97;2.53;;;13.90;99.90;;;12.71;94.98;97561.44;5022838;28;20045;-65
2021/07/01 07:47:55;;;;;;;2.80;1.98;;;13.90;99.90;;;12.61;93.96;97567.19;5023410;28;20097;-65
2021/07/01 07:50:51;;;;;;;3.78;2.17;;;14.00;99.90;;;12.53;94.62;97558.00;5025004;28;20046;-66
2021/07/01 07:53:40;;;;;;;2.20;1.30;;;13.90;99.90;;;12.41;93.62;97573.41;5024322;28;20465;-66
2021/07/01 07:56:36;;;;;;;3.22;1.60;;;14.00;99.90;;;12.53;93.92;97558.00;5025202;28;20046;-65
2021/07/01 07:59:29;;;;;;;2.60;1.40;;;14.10;99.90;;;12.60;93.86;97563.75;5022801;28;20583;-65
2021/07/01 08:02:46;;;;;;;4.03;1.40;;;14.10;99.90;;;12.65;94.37;97568.72;5024050;28;20041;-65
2021/07/01 08:05:34;;;;;;;2.50;1.20;;;14.20;99.90;;;12.51;94.72;97572.84;5024811;28;20045;-65
2021/07/01 08:08:23;;;;;;;1.83;1.20;;;14.20;99.90;;;12.39;95.31;97572.66;5018747;28;20044;-65
2021/07/01 08:11:11;;;;;;;2.90;1.20;;;14.10;99.90;;;12.56;96.38;97567.41;5020930;28;20413;-65
2021/07/01 08:14:00;;;;;;;3.53;1.77;;;14.00;99.90;;;12.76;96.79;97563.81;5022998;28;20068;-65
2021/07/01 08:16:47;;;;;;;2.25;1.45;;;14.00;99.90;;;12.51;95.32;97567.66;5000635;28;20556;-65
2021/07/01 08:19:35;;;;;;;2.42;1.10;;;14.00;99.90;;;12.68;95.51;97569.41;5006817;28;20041;-65
2021/07/01 08:22:23;;;;;;;2.28;1.17;;;14.00;99.90;;;12.59;95.71;97569.88;5010860;28;20107;-65
2021/07/01 08:25:12;;;;;;;2.42;1.30;;;13.90;99.90;;;12.75;95.33;97569.94;5009111;28;20041;-65
2021/07/01 08:27:59;;;;;;;2.20;1.35;;;14.00;99.90;;;12.65;95.41;97576.53;5022471;28;20037;-65
2021/07/01 08:30:49;;;;;;;2.92;1.90;;;14.00;99.90;;;12.59;96.35;97576.84;5014770;28;20065;-65
2021/07/01 08:33:40;;;;;;;3.88;1.98;;;13.90;99.90;;;12.61;97.24;97575.84;5024211;28;20045;-66
2021/07/01 08:36:27;;;;;;;3.40;2.15;;;13.90;99.90;;;12.57;96.89;97584.75;5021497;28;20477;-65
2021/07/01 08:39:15;;;;;;;2.80;1.58;;;14.00;99.90;;;12.74;96.42;97586.47;5022408;28;20603;-65
2021/07/01 08:42:13;;;;;;;3.05;1.95;;;14.00;99.90;;;12.81;95.47;97587.84;5023502;28;20045;-65
2021/07/01 08:45:06;;;;;;;;;;;14.10;99.90;;;12.93;94.48;97584.63;5023472;28;20049;-65
2021/07/01 08:48:00;;;;;;;3.00;1.75;;;14.20;99.90;;;12.66;93.13;97580.84;5004225;28;19925;-66
2021/07/01 08:50:57;;;;;;;4.75;2.13;;;14.30;99.90;;;12.88;94.13;97586.59;5022169;28;20059;-66
2021/07/01 08:54:06;;;;;;;3.47;2.35;;;14.50;99.90;;;12.86;92.46;97585.00;5021217;28;20068;-66
2021/07/01 08:56:56;;;;;;;3.88;1.80;;;14.60;99.90;;;13.29;92.96;97574.97;5020677;28;20041;-65
2021/07/01 08:59:55;;;;;;;4.50;2.15;;;14.90;99.90;;;13.79;91.07;97566.97;5020565;28;20475;-66
2021/07/01 09:03:02;;;;;;;3.50;1.85;;;15.00;99.90;;;13.80;90.43;97579.09;5012486;28;20061;-65
2021/07/01 09:05:52;;;;;;;3.72;2.20;;;15.10;99.90;;;13.79;87.29;97589.63;5029791;28;20116;-65
2021/07/01 09:08:42;;;;;;;4.03;1.95;;;15.40;99.90;;;13.86;88.80;97582.28;5027928;28;20061;-66
2021/07/01 09:11:36;;;;;;;7.80;2.20;;;15.50;99.90;;;13.51;88.54;97579.88;5024804;28;20046;-66
2021/07/01 09:14:27;;;;;;;4.68;2.28;;;15.70;99.90;;;13.41;87.32;97582.13;5013626;28;20048;-66
2021/07/01 09:17:16;;;;;;;3.30;1.88;;;15.50;99.90;;;13.91;88.77;97575.91;5026552;28;20042;-65
2021/07/01 09:20:12;;;;;;;5.55;2.30;;;15.60;99.90;;;13.97;88.97;97580.75;5023127;28;20042;-65
2021/07/01 09:23:01;;;;;;;3.22;1.83;;;15.80;99.90;;;14.11;84.89;97574.75;5029021;28;20118;-65
2021/07/01 09:25:51;;;;;;;3.15;1.75;;;16.00;99.90;;;14.49;84.20;97570.88;5028546;28;20155;-66
2021/07/01 09:28:39;;;;;;;2.90;1.67;;;16.20;99.90;;;15.30;82.83;97570.41;5029918;28;20092;-66
2021/07/01 09:31:28;;;;;;;3.95;1.83;;;16.80;99.90;;;16.16;77.72;97557.13;5013882;28;20041;-66
2021/07/01 09:34:17;;;;;;;5.25;1.77;;;17.30;99.90;;;17.01;77.93;97563.63;5024747;28;20462;-66
2021/07/01 09:37:05;;;;;;;4.55;1.88;;;17.80;99.90;;;16.12;78.78;97559.09;5025648;28;20052;-66
2021/07/01 09:39:54;;;;;;;2.40;1.52;;;17.50;99.90;;;14.61;82.26;97576.25;5028844;28;20137;-66
2021/07/01 09:42:42;;;;;;;5.40;2.40;;;17.00;99.90;;;14.16;85.34;97577.97;5025889;28;20057;-65
2021/07/01 09:45:32;;;;;;;3.33;2.20;;;16.80;99.90;;;14.53;85.31;97574.97;5028331;28;20050;-66
2021/07/01 09:48:22;;;;;;;4.65;3.00;;;16.50;99.90;;;14.76;84.61;97563.22;5028705;28;20042;-65
2021/07/01 09:51:10;;;;;;;5.32;3.40;;;16.20;99.90;;;14.32;85.46;97572.72;5008104;28;20042;-65
2021/07/01 09:54:01;;;;;;;4.25;2.40;;;16.30;99.90;;;15.31;82.76;97570.31;5033483;28;20551;-65
2021/07/01 09:56:53;;;;;;;3.97;1.80;;;16.50;99.90;;;15.06;79.37;97582.28;5022535;28;20143;-66
2021/07/01 09:59:50;;;;;;;4.07;1.65;;;16.90;99.90;;;15.26;79.60;97591.53;5033396;28;20049;-66
2021/07/01 10:02:38;;;;;;;5.20;2.13;;;16.90;99.90;;;14.31;81.56;97584.06;5026408;28;20033;-66
2021/07/01 10:05:27;;;;;;;4.25;2.17;;;16.40;99.90;;;13.68;86.55;97598.03;5009620;28;20107;-66
2021/07/01 10:08:15;;;;;;;3.90;1.63;;;16.00;99.90;;;13.64;88.29;97593.94;5028253;28;22134;-65
2021/07/01 10:11:03;;;;;;;2.85;1.65;;;15.40;99.90;;;13.99;87.07;97585.91;5027219;28;20056;-66
2021/07/01 10:13:53;;;;;;;3.05;2.20;;;15.50;99.90;;;14.68;83.26;97599.41;5038285;28;20127;-66
2021/07/01 10:16:40;;;;;;;3.20;1.65;;;16.20;99.90;;;14.41;83.18;97589.59;5043679;28;20045;-65
2021/07/01 10:19:28;;;;;;;3.30;1.20;;;16.60;99.90;;;15.00;80.57;97592.25;5028697;28;20130;-66
2021/07/01 10:22:21;;;;;;;5.10;1.77;;;17.10;99.90;;;15.95;77.44;97585.56;5008728;28;20061;-66
2021/07/01 10:25:10;;;;;;;4.70;2.00;;;17.20;99.90;;;15.20;79.47;97596.28;5027190;28;20086;-66
2021/07/01 10:28:12;;;;;;;4.82;2.35;;;17.30;99.90;;;15.07;77.90;97593.56;5026891;28;20096;-66
2021/07/01 10:31:01;;;;;;;3.55;2.50;;;16.80;99.90;;;14.41;79.18;97593.06;5026333;28;20509;-66
2021/07/01 10:33:57;;;;;;;4.82;2.35;;;16.70;99.90;;;14.29;80.49;97595.53;5028227;28;20537;-65
2021/07/01 10:36:45;;;;;;;4.45;2.80;;;16.40;99.90;;;14.61;81.68;97596.31;5024230;28;20057;-65
2021/07/01 10:39:33;;;;;;;3.75;2.67;;;15.90;99.90;;;14.16;84.40;97598.84;5026307;28;20174;-66
2021/07/01 10:42:21;;;;;;;4.95;2.65;;;15.70;99.90;;;13.92;84.50;97597.63;5020483;28;20088;-65
2021/07/01 10:45:10;;;;;;;4.63;2.83;;;15.40;99.90;;;13.85;86.10;97611.94;5026748;28;20052;-66
2021/07/01 10:48:13;;;;;;;4.50;2.58;;;15.40;99.90;;;13.56;86.63;97606.53;5018915;28;20042;-66
2021/07/01 10:51:13;;;;;;;4.88;2.50;;;15.00;99.90;;;13.25;88.09;97615.09;5025937;28;20049;-66
2021/07/01 10:54:12;;;;;;;4.00;2.95;;;14.80;99.90;;;13.30;87.46;97621.81;5024528;28;20521;-66
2021/07/01 10:57:09;;;;;;;4.10;1.77;;;14.70;99.90;;;13.09;87.41;97625.50;5027784;28;20103;-66
2021/07/01 10:59:59;;;;;;;4.35;1.92;;;14.70;99.90;;;13.31;86.48;97620.03;5044367;28;20471;-66
2021/07/01 11:02:49;;;;;;;3.47;1.80;;;14.70;99.90;;;13.48;86.39;97613.91;5034946;28;20441;-66
2021/07/01 11:05:49;;;;;;;3.17;1.77;;;14.80;99.90;;;13.51;85.22;97622.44;5025870;28;20298;-65
2021/07/01 11:08:37;;;;;;;4.70;2.00;;;14.90;99.90;;;13.79;85.29;97618.31;5018295;28;20069;-65
2021/07/01 11:11:30;;;;;;;2.50;1.55;;;15.00;99.90;;;13.61;85.69;97614.94;5027602;28;20072;-65
2021/07/01 11:14:20;;;;;;;6.68;1.60;;;15.20;99.90;;;13.36;83.38;97616.28;5026738;28;20477;-65
2021/07/01 11:17:09;;;;;;;3.88;1.80;;;15.20;99.90;;;13.78;84.79;97616.66;5011270;28;20044;-66
2021/07/01 11:19:56;;;;;;;3.15;1.80;;;15.30;99.90;;;13.93;81.82;97615.78;5004852;28;20053;-66
2021/07/01 11:22:56;;;;;;;4.78;1.95;;;15.50;99.90;;;14.47;81.14;97601.47;5020821;28;20140;-66
2021/07/01 11:25:44;;;;;;;18.40;5.90;;;15.70;99.90;;;14.23;81.77;97608.00;5020997;28;20045;-65
2021/07/01 11:28:31;;;;;;;5.72;3.22;;;15.80;99.90;;;14.30;81.85;97607.66;5022041;28;20090;-66
2021/07/01 11:31:19;;;;;;;20.20;8.68;;;16.00;99.90;;;14.47;82.21;97610.13;5022587;28;20056;-66
2021/07/01 11:34:08;;;;;;;7.53;3.30;;;16.10;99.90;;;14.64;80.31;97612.66;5026257;28;20060;-66
2021/07/01 11:36:56;;;;;;;5.57;3.05;;;16.10;99.90;;;14.30;81.00;97615.47;5017374;28;20073;-66
2021/07/01 11:39:43;;;;;;;9.25;3.25;;;16.00;99.90;;;14.25;81.90;97614.91;5027479;28;20077;-66
2021/07/01 11:42:31;;;;;;;7.30;3.05;;;15.90;99.90;;;14.17;81.01;97621.41;5014787;28;20109;-66
2021/07/01 11:45:20;;;;;;;6.15;3.08;;;16.00;99.90;;;14.04;81.42;97619.56;5026111;28;20158;-66
2021/07/01 11:48:07;;;;;;;9.27;3.60;;;16.10;99.90;;;13.98;80.77;97628.56;5012881;28;20050;-66
2021/07/01 11:50:56;;;;;;;6.93;3.92;;;16.10;99.90;;;14.17;80.71;97621.41;5011178;28;20505;-66